createdAt,value
2023-01-08T00:01:52.037Z,23.83
2023-01-08T00:04:18.587Z,24.47
2023-01-08T00:06:45.067Z,25.20
2023-01-08T00:09:11.852Z,24.27
2023-01-08T00:11:38.392Z,25.33
2023-01-08T00:14:04.996Z,25.27
2023-01-08T00:16:31.704Z,26.47
2023-01-08T00:18:58.292Z,26.47
2023-01-08T00:21:24.927Z,24.77
2023-01-08T00:23:51.542Z,25.47
2023-01-08T00:26:18.110Z,25.97
2023-01-08T00:28:44.649Z,27.37
2023-01-08T00:31:11.684Z,29.37
2023-01-08T00:33:38.574Z,30.27
2023-01-08T00:36:12.060Z,31.40
2023-01-08T00:38:38.603Z,29.57
2023-01-08T00:41:05.209Z,30.23
2023-01-08T00:43:31.749Z,28.57
2023-01-08T00:45:58.326Z,29.53
2023-01-08T00:48:27.718Z,27.63
2023-01-08T00:50:54.301Z,28.87
2023-01-08T00:53:21.263Z,28.87
2023-01-08T00:55:47.797Z,27.37
2023-01-08T00:58:14.767Z,27.50
2023-01-08T01:00:41.343Z,27.40
2023-01-08T01:03:07.927Z,25.37
2023-01-08T01:05:34.470Z,25.40
2023-01-08T01:08:01.062Z,25.47
2023-01-08T01:10:27.589Z,25.00
2023-01-08T01:12:54.086Z,24.67
2023-01-08T01:15:20.710Z,24.87
2023-01-08T01:17:47.295Z,24.33
2023-01-08T01:20:14.479Z,23.90
2023-01-08T01:22:41.113Z,24.47
2023-01-08T01:25:07.870Z,23.90
2023-01-08T01:27:34.359Z,24.10
2023-01-08T01:30:00.925Z,23.27
2023-01-08T01:32:27.423Z,23.20
2023-01-08T01:34:53.897Z,23.27
2023-01-08T01:37:20.466Z,22.30
2023-01-08T01:39:47.368Z,24.33
2023-01-08T01:42:34.154Z,22.47
2023-01-08T01:45:00.739Z,22.67
2023-01-08T01:47:32.884Z,21.37
2023-01-08T01:50:07.967Z,20.97
2023-01-08T01:52:35.843Z,21.27
2023-01-08T01:55:02.400Z,22.13
2023-01-08T01:57:29.293Z,20.20
2023-01-08T01:59:56.007Z,22.23
2023-01-08T02:02:23.186Z,20.40
2023-01-08T02:04:49.809Z,19.87
2023-01-08T02:07:17.356Z,20.83
2023-01-08T02:10:13.455Z,19.17
2023-01-08T02:12:44.899Z,20.43
2023-01-08T02:15:17.567Z,21.03
2023-01-08T02:17:44.039Z,18.97
2023-01-08T02:20:15.194Z,19.63
2023-01-08T02:22:41.679Z,18.87
2023-01-08T02:25:26.892Z,19.07
2023-01-08T02:27:53.435Z,18.60
2023-01-08T02:30:19.935Z,19.90
2023-01-08T02:32:46.613Z,19.83
2023-01-08T02:35:13.297Z,21.00
2023-01-08T02:37:39.931Z,19.30
2023-01-08T02:40:10.100Z,21.13
2023-01-08T02:42:42.939Z,21.17
2023-01-08T02:45:16.637Z,21.57
2023-01-08T02:47:46.827Z,20.13
2023-01-08T02:50:25.552Z,22.27
2023-01-08T02:53:11.989Z,21.40
2023-01-08T02:55:39.057Z,21.03
2023-01-08T02:58:05.630Z,20.50
2023-01-08T03:00:32.124Z,20.53
2023-01-08T03:03:04.271Z,23.37
2023-01-08T03:05:30.812Z,24.93
2023-01-08T03:07:57.295Z,27.73
2023-01-08T03:10:24.906Z,24.10
2023-01-08T03:12:55.972Z,23.23
2023-01-08T03:15:27.472Z,21.83
2023-01-08T03:17:55.058Z,20.97
2023-01-08T03:20:22.311Z,20.93
2023-01-08T03:22:53.404Z,19.93
2023-01-08T03:25:20.122Z,20.23
2023-01-08T03:27:47.705Z,19.50
2023-01-08T03:30:14.366Z,19.87
2023-01-08T03:32:41.403Z,18.83
2023-01-08T03:35:08.726Z,19.93
2023-01-08T03:37:35.884Z,20.47
2023-01-08T03:40:10.358Z,18.97
2023-01-08T03:42:36.865Z,19.37
2023-01-08T03:45:03.504Z,18.90
2023-01-08T03:47:30.727Z,20.20
2023-01-08T03:49:57.525Z,19.23
2023-01-08T03:52:24.692Z,19.37
2023-01-08T03:54:51.244Z,18.73
2023-01-08T03:57:17.835Z,19.57
2023-01-08T03:59:44.316Z,21.67
2023-01-08T04:02:11.065Z,20.27
2023-01-08T04:04:37.892Z,22.93
2023-01-08T04:07:04.791Z,19.83
2023-01-08T04:09:31.458Z,21.07
2023-01-08T04:11:58.019Z,21.00
2023-01-08T04:14:24.546Z,20.03
2023-01-08T04:16:51.046Z,20.23
2023-01-08T04:19:20.011Z,22.87
2023-01-08T04:21:46.515Z,27.60
2023-01-08T04:24:13.247Z,29.13
2023-01-08T04:26:39.737Z,28.27
2023-01-08T04:29:06.244Z,28.60
2023-01-08T04:31:32.833Z,28.67
2023-01-08T04:33:59.337Z,30.03
2023-01-08T04:36:25.879Z,29.43
2023-01-08T04:38:52.459Z,28.07
2023-01-08T04:41:18.948Z,21.37
2023-01-08T04:43:45.449Z,22.23
2023-01-08T04:46:12.130Z,21.17
2023-01-08T04:48:38.723Z,21.47
2023-01-08T04:51:05.304Z,24.00
2023-01-08T04:53:33.429Z,25.33
2023-01-08T04:56:06.455Z,22.80
2023-01-08T04:58:33.650Z,20.77
2023-01-08T05:01:00.178Z,22.03
2023-01-08T05:03:26.726Z,24.73
2023-01-08T05:05:53.262Z,23.07
2023-01-08T05:08:19.758Z,23.97
2023-01-08T05:10:46.387Z,23.93
2023-01-08T05:13:12.897Z,24.80
2023-01-08T05:15:39.386Z,25.33
2023-01-08T05:18:06.011Z,24.30
2023-01-08T05:20:32.727Z,33.13
2023-01-08T05:22:59.402Z,31.50
2023-01-08T05:25:25.938Z,31.63
2023-01-08T05:27:52.621Z,29.70
2023-01-08T05:30:19.092Z,28.53
2023-01-08T05:32:45.589Z,25.90
2023-01-08T05:35:12.166Z,26.17
2023-01-08T05:37:39.371Z,24.73
2023-01-08T05:40:06.069Z,24.60
2023-01-08T05:42:33.910Z,24.33
2023-01-08T05:45:00.450Z,22.87
2023-01-08T05:47:29.587Z,23.67
2023-01-08T05:49:56.415Z,24.23
2023-01-08T05:52:22.901Z,24.77
2023-01-08T05:54:49.440Z,22.13
2023-01-08T05:57:15.918Z,22.77
2023-01-08T05:59:42.445Z,21.87
2023-01-08T06:02:09.097Z,22.63
2023-01-08T06:04:35.763Z,22.73
2023-01-08T06:07:02.661Z,23.17
2023-01-08T06:09:29.176Z,23.47
2023-01-08T06:11:58.107Z,24.47
2023-01-08T06:14:24.832Z,24.00
2023-01-08T06:16:51.395Z,24.47
2023-01-08T06:19:19.158Z,23.37
2023-01-08T06:21:45.849Z,22.17
2023-01-08T06:24:12.382Z,24.10
2023-01-08T06:26:38.939Z,24.77
2023-01-08T06:29:05.430Z,23.83
2023-01-08T06:31:32.013Z,25.13
2023-01-08T06:33:58.716Z,26.20
2023-01-08T06:36:25.319Z,26.83
2023-01-08T06:38:51.837Z,24.97
2023-01-08T06:41:18.330Z,23.67
2023-01-08T06:43:44.845Z,23.63
2023-01-08T06:46:11.463Z,22.30
2023-01-08T06:48:38.029Z,23.83
2023-01-08T06:51:04.807Z,21.77
2023-01-08T06:53:31.337Z,24.20
2023-01-08T06:55:58.876Z,22.03
2023-01-08T06:58:25.953Z,23.23
2023-01-08T07:00:52.461Z,22.40
2023-01-08T07:03:19.071Z,24.13
2023-01-08T07:05:45.644Z,24.20
2023-01-08T07:08:13.789Z,25.60
2023-01-08T07:10:40.382Z,24.33
2023-01-08T07:13:09.153Z,24.93
2023-01-08T07:15:36.358Z,25.37
2023-01-08T07:18:07.265Z,23.93
2023-01-08T07:20:33.991Z,25.10
2023-01-08T07:23:04.107Z,22.77
2023-01-08T07:25:30.979Z,23.03
2023-01-08T07:27:57.490Z,21.60
2023-01-08T07:30:29.864Z,22.50
2023-01-08T07:33:03.330Z,24.53
2023-01-08T07:35:30.056Z,24.73
2023-01-08T07:37:56.597Z,26.10
2023-01-08T07:40:23.172Z,24.73
2023-01-08T07:42:57.019Z,25.33
2023-01-08T07:45:23.623Z,24.87
2023-01-08T07:47:50.190Z,25.73
2023-01-08T07:50:16.780Z,24.83
2023-01-08T07:52:43.314Z,23.53
2023-01-08T07:55:10.208Z,21.53
2023-01-08T07:57:36.741Z,22.43
2023-01-08T08:00:03.347Z,24.00
2023-01-08T08:02:30.118Z,25.70
2023-01-08T08:04:56.718Z,26.50
2023-01-08T08:07:23.206Z,26.30
2023-01-08T08:09:49.803Z,28.23
2023-01-08T08:12:16.312Z,26.93
2023-01-08T08:14:42.849Z,28.03
2023-01-08T08:17:09.383Z,27.93
2023-01-08T08:19:35.913Z,27.73
2023-01-08T08:22:02.397Z,27.80
2023-01-08T08:24:28.918Z,27.30
2023-01-08T08:26:55.468Z,26.03
2023-01-08T08:29:22.061Z,26.13
2023-01-08T08:31:48.603Z,26.20
2023-01-08T08:34:15.182Z,24.97
2023-01-08T08:36:41.679Z,23.40
2023-01-08T08:39:08.317Z,22.87
2023-01-08T08:41:34.846Z,23.77
2023-01-08T08:44:01.359Z,24.27
2023-01-08T08:46:28.971Z,24.53
2023-01-08T08:48:55.516Z,22.57
2023-01-08T08:51:22.064Z,26.17
2023-01-08T08:53:48.638Z,29.20
2023-01-08T08:56:15.358Z,28.43
2023-01-08T08:58:42.177Z,28.37
2023-01-08T09:01:08.756Z,29.67
2023-01-08T09:03:35.409Z,24.90
2023-01-08T09:06:02.039Z,26.17
2023-01-08T09:08:28.572Z,22.23
2023-01-08T09:10:55.069Z,21.77
2023-01-08T09:13:21.630Z,22.60
2023-01-08T09:15:48.199Z,22.70
2023-01-08T09:18:16.028Z,22.10
2023-01-08T09:20:42.666Z,24.73
2023-01-08T09:23:09.464Z,21.97
2023-01-08T09:25:36.073Z,19.73
2023-01-08T09:28:03.186Z,20.47
2023-01-08T09:30:29.956Z,19.87
2023-01-08T09:32:57.183Z,18.73
2023-01-08T09:35:23.733Z,18.00
2023-01-08T09:37:51.142Z,18.87
2023-01-08T09:40:17.713Z,16.87
2023-01-08T09:42:44.306Z,16.23
2023-01-08T09:45:13.294Z,15.93
2023-01-08T09:47:39.778Z,16.27
2023-01-08T09:50:11.586Z,16.63
2023-01-08T09:52:38.176Z,16.20
2023-01-08T09:55:10.034Z,17.57
2023-01-08T09:57:36.525Z,15.13
2023-01-08T10:00:03.517Z,15.27
2023-01-08T10:02:31.388Z,15.40
2023-01-08T10:04:58.495Z,14.90
2023-01-08T10:07:25.577Z,15.13
2023-01-08T10:09:52.648Z,16.33
2023-01-08T10:12:31.774Z,15.87
2023-01-08T10:15:07.971Z,16.23
2023-01-08T10:17:34.461Z,16.77
2023-01-08T10:20:01.015Z,15.07
2023-01-08T10:22:28.957Z,15.13
2023-01-08T10:25:03.300Z,15.33
2023-01-08T10:27:29.788Z,16.43
2023-01-08T10:30:04.014Z,16.97
2023-01-08T10:32:30.962Z,17.43
2023-01-08T10:34:57.572Z,16.03
2023-01-08T10:37:32.098Z,16.43
2023-01-08T10:40:06.799Z,16.33
2023-01-08T10:42:34.172Z,16.90
2023-01-08T10:45:01.205Z,15.87
2023-01-08T10:47:28.633Z,17.77
2023-01-08T10:49:55.203Z,17.50
2023-01-08T10:52:25.207Z,18.07
2023-01-08T10:54:51.809Z,19.00
2023-01-08T10:57:27.916Z,18.17
2023-01-08T10:59:54.602Z,16.77
2023-01-08T11:02:22.172Z,17.53
2023-01-08T11:04:51.377Z,18.93
2023-01-08T11:07:20.367Z,20.90
2023-01-08T11:09:48.350Z,21.17
2023-01-08T11:12:33.772Z,22.07
2023-01-08T11:15:00.430Z,24.40
2023-01-08T11:17:27.301Z,26.90
2023-01-08T11:19:55.773Z,27.17
2023-01-08T11:22:23.429Z,26.23
2023-01-08T11:24:50.070Z,26.73
2023-01-08T11:27:18.999Z,28.20
2023-01-08T11:29:57.724Z,28.33
2023-01-08T11:32:24.370Z,28.30
2023-01-08T11:34:54.084Z,26.87
2023-01-08T11:37:20.661Z,26.03
2023-01-08T11:39:47.204Z,26.33
2023-01-08T11:42:32.261Z,25.50
2023-01-08T11:45:01.930Z,26.97
2023-01-08T11:47:47.347Z,27.27
2023-01-08T11:50:16.971Z,26.27
2023-01-08T11:52:47.304Z,25.63
2023-01-08T11:55:38.040Z,25.53
2023-01-08T11:58:04.578Z,23.97
2023-01-08T12:00:43.012Z,24.27
2023-01-08T12:03:28.356Z,23.50
2023-01-08T12:05:54.846Z,23.47
2023-01-08T12:08:28.153Z,24.70
2023-01-08T12:11:00.815Z,23.80
2023-01-08T12:13:59.924Z,22.50
2023-01-08T12:16:29.752Z,19.97
2023-01-08T12:18:59.365Z,19.90
2023-01-08T12:21:26.029Z,19.20
2023-01-08T12:23:55.625Z,20.67
2023-01-08T12:26:31.582Z,21.60
2023-01-08T12:29:01.132Z,20.63
2023-01-08T12:31:31.194Z,21.30
2023-01-08T12:34:00.306Z,20.20
2023-01-08T12:36:33.443Z,21.10
2023-01-08T12:39:04.408Z,21.10
2023-01-08T12:41:32.278Z,19.20
2023-01-08T12:44:02.029Z,17.93
2023-01-08T12:46:29.794Z,18.90
2023-01-08T12:48:56.352Z,18.30
2023-01-08T12:51:25.925Z,19.93
2023-01-08T12:54:10.183Z,19.67
2023-01-08T12:56:57.020Z,18.90
2023-01-08T12:59:26.570Z,19.17
2023-01-08T13:01:56.201Z,19.90
2023-01-08T13:04:23.072Z,19.73
2023-01-08T13:07:02.491Z,20.33
2023-01-08T13:09:29.090Z,20.77
2023-01-08T13:11:56.168Z,20.77
2023-01-08T13:14:23.089Z,21.43
2023-01-08T13:17:00.425Z,19.73
2023-01-08T13:19:27.934Z,23.20
2023-01-08T13:21:55.150Z,20.67
2023-01-08T13:24:26.936Z,24.20
2023-01-08T13:26:53.834Z,20.93
2023-01-08T13:29:23.758Z,22.50
2023-01-08T13:31:50.287Z,21.27
2023-01-08T13:34:20.793Z,22.40
2023-01-08T13:36:57.285Z,22.77
2023-01-08T13:39:24.494Z,24.60
2023-01-08T13:41:57.988Z,24.17
2023-01-08T13:44:24.628Z,25.87
2023-01-08T13:46:55.209Z,25.83
2023-01-08T13:49:40.480Z,26.30
2023-01-08T13:52:26.433Z,26.40
2023-01-08T13:54:53.092Z,27.43
2023-01-08T13:57:20.754Z,28.30
2023-01-08T13:59:52.622Z,26.50
2023-01-08T14:02:23.412Z,25.67
2023-01-08T14:04:50.377Z,26.00
2023-01-08T14:07:16.937Z,25.90
2023-01-08T14:09:43.688Z,28.87
2023-01-08T14:12:14.826Z,24.83
2023-01-08T14:14:42.547Z,25.60
2023-01-08T14:17:16.690Z,25.60
2023-01-08T14:19:43.581Z,24.60
2023-01-08T14:22:16.034Z,23.20
2023-01-08T14:24:43.375Z,24.40
2023-01-08T14:27:18.402Z,27.33
2023-01-08T14:29:45.113Z,26.40
2023-01-08T14:32:13.801Z,26.60
2023-01-08T14:34:40.440Z,27.10
2023-01-08T14:37:10.491Z,28.23
2023-01-08T14:39:40.010Z,30.77
2023-01-08T14:42:35.417Z,34.20
2023-01-08T14:45:06.092Z,32.73
2023-01-08T14:47:40.531Z,36.20
2023-01-08T14:50:07.487Z,36.40
2023-01-08T14:52:34.138Z,42.97
2023-01-08T14:55:00.723Z,36.87
2023-01-08T14:57:27.349Z,35.70
2023-01-08T14:59:57.761Z,31.00
2023-01-08T15:02:34.547Z,32.53
2023-01-08T15:05:01.955Z,33.03
2023-01-08T15:07:28.608Z,34.63
2023-01-08T15:09:56.020Z,31.77
2023-01-08T15:12:23.335Z,27.77
2023-01-08T15:14:49.899Z,27.27
2023-01-08T15:17:17.866Z,27.03
2023-01-08T15:19:48.437Z,26.53
2023-01-08T15:22:22.630Z,28.73
2023-01-08T15:24:54.839Z,28.00
2023-01-08T15:27:21.416Z,28.17
2023-01-08T15:29:49.865Z,28.33
2023-01-08T15:32:16.389Z,29.40
2023-01-08T15:34:43.747Z,34.23
2023-01-08T15:37:10.529Z,38.30
2023-01-08T15:39:37.283Z,42.67
2023-01-08T15:42:39.320Z,38.83
2023-01-08T15:45:06.857Z,40.33
2023-01-08T15:47:33.658Z,32.30
2023-01-08T15:50:00.483Z,30.20
2023-01-08T15:52:30.023Z,28.30
2023-01-08T15:54:59.831Z,26.17
2023-01-08T15:57:26.618Z,26.73
2023-01-08T15:59:53.480Z,27.53
2023-01-08T16:02:20.062Z,29.07
2023-01-08T16:04:51.139Z,30.80
2023-01-08T16:07:17.703Z,30.80
2023-01-08T16:09:44.447Z,33.57
2023-01-08T16:12:11.546Z,32.43
2023-01-08T16:14:38.391Z,31.97
2023-01-08T16:17:05.336Z,30.67
2023-01-08T16:19:34.125Z,31.60
2023-01-08T16:22:00.647Z,32.73
2023-01-08T16:24:27.374Z,39.27
2023-01-08T16:26:54.110Z,39.93
2023-01-08T16:29:20.983Z,39.87
2023-01-08T16:31:48.254Z,35.80
2023-01-08T16:34:15.245Z,35.50
2023-01-08T16:36:41.840Z,41.53
2023-01-08T16:39:08.494Z,43.67
2023-01-08T16:41:35.525Z,39.60
2023-01-08T16:44:02.257Z,40.10
2023-01-08T16:46:29.939Z,36.90
2023-01-08T16:48:56.480Z,32.70
2023-01-08T16:51:25.300Z,34.77
2023-01-08T16:53:52.166Z,32.47
2023-01-08T16:56:18.974Z,34.57
2023-01-08T16:58:45.833Z,33.67
2023-01-08T17:01:12.853Z,33.97
2023-01-08T17:03:39.697Z,31.57
2023-01-08T17:06:07.438Z,31.37
2023-01-08T17:08:34.157Z,31.63
2023-01-08T17:11:01.340Z,33.43
2023-01-08T17:13:28.059Z,34.73
2023-01-08T17:15:54.681Z,35.53
2023-01-08T17:18:21.509Z,38.03
2023-01-08T17:20:54.557Z,37.93
2023-01-08T17:23:24.418Z,39.80
2023-01-08T17:25:51.032Z,46.80
2023-01-08T17:28:17.596Z,41.20
2023-01-08T17:30:44.100Z,40.80
2023-01-08T17:33:11.451Z,45.70
2023-01-08T17:35:38.758Z,45.30
2023-01-08T17:38:05.611Z,44.27
2023-01-08T17:40:32.197Z,47.80
2023-01-08T17:42:58.779Z,48.83
2023-01-08T17:45:25.388Z,52.13
2023-01-08T17:47:52.207Z,51.47
2023-01-08T17:50:18.842Z,52.37
2023-01-08T17:52:47.824Z,53.30
2023-01-08T17:55:14.441Z,53.07
2023-01-08T17:57:41.005Z,52.80
2023-01-08T18:00:07.964Z,49.90
2023-01-08T18:02:34.546Z,51.53
2023-01-08T18:05:01.215Z,54.07
2023-01-08T18:07:27.864Z,54.00
2023-01-08T18:09:54.753Z,53.97
2023-01-08T18:12:21.326Z,55.13
2023-01-08T18:14:47.969Z,56.73
2023-01-08T18:17:14.643Z,61.53
2023-01-08T18:19:41.211Z,57.27
2023-01-08T18:22:07.737Z,51.93
2023-01-08T18:24:34.780Z,54.20
2023-01-08T18:27:01.540Z,48.53
2023-01-08T18:29:28.059Z,47.40
2023-01-08T18:31:54.819Z,46.93
2023-01-08T18:34:21.435Z,42.90
2023-01-08T18:36:48.036Z,46.00
2023-01-08T18:39:14.679Z,43.10
2023-01-08T18:41:59.885Z,45.63
2023-01-08T18:44:26.514Z,45.30
2023-01-08T18:46:54.060Z,42.97
2023-01-08T18:49:21.536Z,38.27
2023-01-08T18:51:48.172Z,38.13
2023-01-08T18:54:15.704Z,38.40
2023-01-08T18:56:42.542Z,36.80
2023-01-08T18:59:10.512Z,36.80
2023-01-08T19:01:38.083Z,36.37
2023-01-08T19:04:05.312Z,34.43
2023-01-08T19:06:32.056Z,34.87
2023-01-08T19:09:01.703Z,34.30
2023-01-08T19:11:29.191Z,35.23
2023-01-08T19:13:58.251Z,34.70
2023-01-08T19:16:33.920Z,34.27
2023-01-08T19:19:03.101Z,33.63
2023-01-08T19:21:36.337Z,33.07
2023-01-08T19:24:03.105Z,34.10
2023-01-08T19:26:29.695Z,33.53
2023-01-08T19:29:05.008Z,31.67
2023-01-08T19:31:31.826Z,34.10
2023-01-08T19:33:59.076Z,33.03
2023-01-08T19:36:26.153Z,32.67
2023-01-08T19:38:53.000Z,32.37
2023-01-08T19:41:38.251Z,32.50
2023-01-08T19:44:05.203Z,32.50
2023-01-08T19:46:31.909Z,33.73
2023-01-08T19:49:01.101Z,37.47
2023-01-08T19:51:27.975Z,39.30
2023-01-08T19:53:55.349Z,39.43
2023-01-08T19:56:22.043Z,39.17
2023-01-08T19:58:48.736Z,38.93
2023-01-08T20:01:16.455Z,40.50
2023-01-08T20:03:43.092Z,40.90
2023-01-08T20:06:10.320Z,39.00
2023-01-08T20:08:36.953Z,39.63
2023-01-08T20:11:10.467Z,38.13
2023-01-08T20:13:37.086Z,37.83
2023-01-08T20:16:04.386Z,36.10
2023-01-08T20:18:31.219Z,36.10
2023-01-08T20:21:12.983Z,34.70
2023-01-08T20:23:39.883Z,34.30
2023-01-08T20:26:07.628Z,33.80
2023-01-08T20:28:34.637Z,33.67
2023-01-08T20:31:07.982Z,32.50
2023-01-08T20:33:35.494Z,32.50
2023-01-08T20:36:02.927Z,33.60
2023-01-08T20:38:29.575Z,32.60
2023-01-08T20:40:56.165Z,31.97
2023-01-08T20:43:22.805Z,31.50
2023-01-08T20:45:49.343Z,32.27
2023-01-08T20:48:15.930Z,32.83
2023-01-08T20:50:46.907Z,33.97
2023-01-08T20:53:14.518Z,32.83
2023-01-08T20:55:41.185Z,33.77
2023-01-08T20:58:07.797Z,34.60
2023-01-08T21:00:34.351Z,34.67
2023-01-08T21:03:00.922Z,35.37
2023-01-08T21:05:27.479Z,40.83
2023-01-08T21:07:54.005Z,43.97
2023-01-08T21:10:20.482Z,43.77
2023-01-08T21:12:47.167Z,46.47
2023-01-08T21:15:13.823Z,45.77
2023-01-08T21:17:40.289Z,47.53
2023-01-08T21:20:07.092Z,46.47
2023-01-08T21:22:33.644Z,47.03
2023-01-08T21:25:00.161Z,46.47
2023-01-08T21:27:27.952Z,46.10
2023-01-08T21:29:54.608Z,46.07
2023-01-08T21:32:21.117Z,41.70
2023-01-08T21:34:47.696Z,41.90
2023-01-08T21:37:15.417Z,41.13
2023-01-08T21:39:42.287Z,41.73
2023-01-08T21:42:30.629Z,43.10
2023-01-08T21:45:15.871Z,45.13
2023-01-08T21:47:42.352Z,44.67
2023-01-08T21:50:09.602Z,47.27
2023-01-08T21:52:54.731Z,45.67
2023-01-08T21:55:21.437Z,42.53
2023-01-08T21:57:47.943Z,41.33
2023-01-08T22:00:14.901Z,42.83
2023-01-08T22:02:41.489Z,40.73
2023-01-08T22:05:08.207Z,36.93
2023-01-08T22:07:34.978Z,37.13
2023-01-08T22:10:01.523Z,38.00
2023-01-08T22:12:28.043Z,36.67
2023-01-08T22:14:55.019Z,36.73
2023-01-08T22:17:22.072Z,36.63
2023-01-08T22:19:48.565Z,35.17
2023-01-08T22:22:15.064Z,35.47
2023-01-08T22:24:41.675Z,34.00
2023-01-08T22:27:08.293Z,32.17
2023-01-08T22:29:35.063Z,36.03
2023-01-08T22:32:01.554Z,37.30
2023-01-08T22:34:31.465Z,38.33
2023-01-08T22:36:57.974Z,37.30
2023-01-08T22:39:24.494Z,36.17
2023-01-08T22:41:50.979Z,41.37
2023-01-08T22:44:17.562Z,42.53
2023-01-08T22:46:44.063Z,40.33
2023-01-08T22:49:11.358Z,42.70
2023-01-08T22:51:38.007Z,42.77
2023-01-08T22:54:04.632Z,41.77
2023-01-08T22:56:31.119Z,41.27
2023-01-08T22:58:57.670Z,40.67
2023-01-08T23:01:24.962Z,39.53
2023-01-08T23:03:51.860Z,39.83
2023-01-08T23:06:18.676Z,37.33
2023-01-08T23:08:45.449Z,35.47
2023-01-08T23:11:12.943Z,33.43
2023-01-08T23:13:39.518Z,33.77
2023-01-08T23:16:06.470Z,34.00
2023-01-08T23:18:33.017Z,33.77
2023-01-08T23:21:03.286Z,34.07
2023-01-08T23:23:29.924Z,32.50
2023-01-08T23:25:56.434Z,32.53
2023-01-08T23:28:23.070Z,32.00
2023-01-08T23:30:49.582Z,31.93
2023-01-08T23:33:16.102Z,31.87
2023-01-08T23:35:42.798Z,33.90
2023-01-08T23:38:09.262Z,32.67
2023-01-08T23:40:35.780Z,33.10
2023-01-08T23:43:02.295Z,33.83
2023-01-08T23:45:28.900Z,33.10
2023-01-08T23:47:55.464Z,33.37
2023-01-08T23:50:22.118Z,31.97
2023-01-08T23:52:48.685Z,32.83
2023-01-08T23:55:15.176Z,32.80
2023-01-08T23:57:41.656Z,32.10
